sensor_id;sensor_type;location;lat;lon;timestamp;P1;durP1;ratioP1;P2;durP2;ratioP2
7231;SDS011;3657;49.630;11.018;2022-11-15T00:00:28;10.73;;;10.23;;
7231;SDS011;3657;49.630;11.018;2022-11-15T00:02:55;10.83;;;10.37;;
7231;SDS011;3657;49.630;11.018;2022-11-15T00:05:21;11.63;;;11.13;;
7231;SDS011;3657;49.630;11.018;2022-11-15T00:07:48;10.30;;;9.90;;
7231;SDS011;3657;49.630;11.018;2022-11-15T00:10:15;10.20;;;9.70;;
7231;SDS011;3657;49.630;11.018;2022-11-15T00:12:43;9.97;;;9.67;;
7231;SDS011;3657;49.630;11.018;2022-11-15T00:15:10;10.33;;;9.93;;
7231;SDS011;3657;49.630;11.018;2022-11-15T00:17:37;9.00;;;8.70;;
7231;SDS011;3657;49.630;11.018;2022-11-15T00:20:04;9.63;;;9.20;;
7231;SDS011;3657;49.630;11.018;2022-11-15T00:22:31;9.80;;;9.40;;
7231;SDS011;3657;49.630;11.018;2022-11-15T00:24:58;9.10;;;8.70;;
7231;SDS011;3657;49.630;11.018;2022-11-15T00:27:25;9.00;;;8.60;;
7231;SDS011;3657;49.630;11.018;2022-11-15T00:29:54;8.90;;;8.60;;
7231;SDS011;3657;49.630;11.018;2022-11-15T00:32:21;9.77;;;9.37;;
7231;SDS011;3657;49.630;11.018;2022-11-15T00:34:48;9.37;;;9.07;;
7231;SDS011;3657;49.630;11.018;2022-11-15T00:37:14;8.83;;;8.40;;
7231;SDS011;3657;49.630;11.018;2022-11-15T00:39:41;9.70;;;9.40;;
7231;SDS011;3657;49.630;11.018;2022-11-15T00:42:08;9.47;;;9.07;;
7231;SDS011;3657;49.630;11.018;2022-11-15T00:44:34;9.33;;;9.03;;
7231;SDS011;3657;49.630;11.018;2022-11-15T00:47:02;9.17;;;8.77;;
7231;SDS011;3657;49.630;11.018;2022-11-15T00:49:29;10.03;;;9.60;;
7231;SDS011;3657;49.630;11.018;2022-11-15T00:51:56;10.50;;;10.10;;
7231;SDS011;3657;49.630;11.018;2022-11-15T00:54:22;9.63;;;9.33;;
7231;SDS011;3657;49.630;11.018;2022-11-15T00:56:49;11.90;;;11.30;;
7231;SDS011;3657;49.630;11.018;2022-11-15T00:59:16;12.07;;;11.47;;
7231;SDS011;3657;49.630;11.018;2022-11-15T01:01:42;11.27;;;10.53;;
7231;SDS011;3657;49.630;11.018;2022-11-15T01:04:10;10.50;;;9.90;;
7231;SDS011;3657;49.630;11.018;2022-11-15T01:06:37;10.43;;;9.93;;
7231;SDS011;3657;49.630;11.018;2022-11-15T01:09:04;10.53;;;10.13;;
7231;SDS011;3657;49.630;11.018;2022-11-15T01:11:30;12.23;;;11.40;;
7231;SDS011;3657;49.630;11.018;2022-11-15T01:13:57;9.70;;;9.30;;
7231;SDS011;3657;49.630;11.018;2022-11-15T01:16:24;10.63;;;10.13;;
7231;SDS011;3657;49.630;11.018;2022-11-15T01:18:51;9.60;;;9.20;;
7231;SDS011;3657;49.630;11.018;2022-11-15T01:21:19;9.40;;;8.90;;
7231;SDS011;3657;49.630;11.018;2022-11-15T01:23:46;9.63;;;9.23;;
7231;SDS011;3657;49.630;11.018;2022-11-15T01:26:13;10.77;;;10.37;;
7231;SDS011;3657;49.630;11.018;2022-11-15T01:28:41;11.23;;;10.63;;
7231;SDS011;3657;49.630;11.018;2022-11-15T01:31:10;10.27;;;9.87;;
7231;SDS011;3657;49.630;11.018;2022-11-15T01:33:39;11.93;;;11.13;;
7231;SDS011;3657;49.630;11.018;2022-11-15T01:36:06;10.40;;;9.90;;
7231;SDS011;3657;49.630;11.018;2022-11-15T01:38:37;10.40;;;10.00;;
7231;SDS011;3657;49.630;11.018;2022-11-15T01:41:04;10.23;;;9.80;;
7231;SDS011;3657;49.630;11.018;2022-11-15T01:43:31;9.63;;;9.30;;
7231;SDS011;3657;49.630;11.018;2022-11-15T01:46:00;9.90;;;9.40;;
7231;SDS011;3657;49.630;11.018;2022-11-15T01:48:30;9.27;;;8.97;;
7231;SDS011;3657;49.630;11.018;2022-11-15T01:50:59;12.10;;;11.30;;
7231;SDS011;3657;49.630;11.018;2022-11-15T01:53:28;12.23;;;11.63;;
7231;SDS011;3657;49.630;11.018;2022-11-15T01:55:57;11.40;;;10.90;;
7231;SDS011;3657;49.630;11.018;2022-11-15T01:58:24;9.83;;;9.43;;
7231;SDS011;3657;49.630;11.018;2022-11-15T02:00:51;9.63;;;9.23;;
7231;SDS011;3657;49.630;11.018;2022-11-15T02:03:18;10.37;;;9.77;;
7231;SDS011;3657;49.630;11.018;2022-11-15T02:05:47;11.27;;;10.67;;
7231;SDS011;3657;49.630;11.018;2022-11-15T02:08:16;9.33;;;8.90;;
7231;SDS011;3657;49.630;11.018;2022-11-15T02:10:45;12.00;;;11.40;;
7231;SDS011;3657;49.630;11.018;2022-11-15T02:13:14;10.80;;;10.40;;
7231;SDS011;3657;49.630;11.018;2022-11-15T02:15:44;10.23;;;9.83;;
7231;SDS011;3657;49.630;11.018;2022-11-15T02:18:19;12.60;;;11.77;;
7231;SDS011;3657;49.630;11.018;2022-11-15T02:21:05;10.10;;;9.43;;
7231;SDS011;3657;49.630;11.018;2022-11-15T02:23:50;10.00;;;9.60;;
7231;SDS011;3657;49.630;11.018;2022-11-15T02:27:16;11.97;;;11.37;;
7231;SDS011;3657;49.630;11.018;2022-11-15T02:32:46;12.47;;;11.63;;
7231;SDS011;3657;49.630;11.018;2022-11-15T02:35:18;11.63;;;10.93;;
7231;SDS011;3657;49.630;11.018;2022-11-15T02:37:55;11.67;;;11.10;;
7231;SDS011;3657;49.630;11.018;2022-11-15T02:40:27;11.33;;;10.63;;
7231;SDS011;3657;49.630;11.018;2022-11-15T02:43:04;11.33;;;10.73;;
7231;SDS011;3657;49.630;11.018;2022-11-15T02:45:54;10.80;;;10.30;;
7231;SDS011;3657;49.630;11.018;2022-11-15T02:48:25;12.70;;;12.07;;
7231;SDS011;3657;49.630;11.018;2022-11-15T02:50:52;12.43;;;11.73;;
7231;SDS011;3657;49.630;11.018;2022-11-15T02:53:23;11.47;;;10.97;;
7231;SDS011;3657;49.630;11.018;2022-11-15T02:55:51;11.37;;;10.87;;
7231;SDS011;3657;49.630;11.018;2022-11-15T02:58:23;11.23;;;10.73;;
7231;SDS011;3657;49.630;11.018;2022-11-15T03:01:14;12.50;;;11.67;;
7231;SDS011;3657;49.630;11.018;2022-11-15T03:03:55;11.30;;;10.70;;
7231;SDS011;3657;49.630;11.018;2022-11-15T03:06:30;11.10;;;10.60;;
7231;SDS011;3657;49.630;11.018;2022-11-15T03:09:03;10.97;;;10.57;;
7231;SDS011;3657;49.630;11.018;2022-11-15T03:11:34;10.03;;;9.47;;
7231;SDS011;3657;49.630;11.018;2022-11-15T03:14:07;11.60;;;11.10;;
7231;SDS011;3657;49.630;11.018;2022-11-15T03:16:45;11.70;;;11.17;;
7231;SDS011;3657;49.630;11.018;2022-11-15T03:19:19;10.93;;;10.50;;
7231;SDS011;3657;49.630;11.018;2022-11-15T03:21:52;12.27;;;11.37;;
7231;SDS011;3657;49.630;11.018;2022-11-15T03:24:21;10.40;;;9.73;;
7231;SDS011;3657;49.630;11.018;2022-11-15T03:26:51;9.67;;;9.27;;
7231;SDS011;3657;49.630;11.018;2022-11-15T03:29:22;9.27;;;8.93;;
7231;SDS011;3657;49.630;11.018;2022-11-15T03:31:54;9.43;;;9.03;;
7231;SDS011;3657;49.630;11.018;2022-11-15T03:34:25;9.67;;;9.27;;
7231;SDS011;3657;49.630;11.018;2022-11-15T03:36:55;9.20;;;8.80;;
7231;SDS011;3657;49.630;11.018;2022-11-15T03:39:22;9.27;;;8.90;;
7231;SDS011;3657;49.630;11.018;2022-11-15T03:41:51;9.50;;;9.10;;
7231;SDS011;3657;49.630;11.018;2022-11-15T03:44:29;8.93;;;8.63;;
7231;SDS011;3657;49.630;11.018;2022-11-15T03:47:03;9.40;;;9.10;;
7231;SDS011;3657;49.630;11.018;2022-11-15T03:49:36;10.10;;;9.73;;
7231;SDS011;3657;49.630;11.018;2022-11-15T03:52:08;11.20;;;10.60;;
7231;SDS011;3657;49.630;11.018;2022-11-15T03:54:36;10.63;;;10.23;;
7231;SDS011;3657;49.630;11.018;2022-11-15T03:57:13;11.27;;;10.57;;
7231;SDS011;3657;49.630;11.018;2022-11-15T03:59:39;8.97;;;8.67;;
7231;SDS011;3657;49.630;11.018;2022-11-15T04:02:07;10.57;;;10.00;;
7231;SDS011;3657;49.630;11.018;2022-11-15T04:04:34;11.20;;;10.70;;
7231;SDS011;3657;49.630;11.018;2022-11-15T04:07:01;8.47;;;8.17;;
7231;SDS011;3657;49.630;11.018;2022-11-15T04:09:28;9.03;;;8.63;;
7231;SDS011;3657;49.630;11.018;2022-11-15T04:11:54;9.37;;;9.00;;
7231;SDS011;3657;49.630;11.018;2022-11-15T04:14:21;9.53;;;9.13;;
7231;SDS011;3657;49.630;11.018;2022-11-15T04:16:48;10.03;;;9.63;;
7231;SDS011;3657;49.630;11.018;2022-11-15T04:19:16;8.47;;;8.17;;
7231;SDS011;3657;49.630;11.018;2022-11-15T04:22:08;11.10;;;10.50;;
7231;SDS011;3657;49.630;11.018;2022-11-15T04:24:53;8.10;;;7.80;;
7231;SDS011;3657;49.630;11.018;2022-11-15T04:27:20;9.27;;;8.87;;
7231;SDS011;3657;49.630;11.018;2022-11-15T04:29:46;11.90;;;10.93;;
7231;SDS011;3657;49.630;11.018;2022-11-15T04:32:13;8.50;;;8.10;;
7231;SDS011;3657;49.630;11.018;2022-11-15T04:34:41;11.63;;;10.93;;
7231;SDS011;3657;49.630;11.018;2022-11-15T04:37:08;9.20;;;8.80;;
7231;SDS011;3657;49.630;11.018;2022-11-15T04:39:36;8.77;;;8.47;;
7231;SDS011;3657;49.630;11.018;2022-11-15T04:42:03;8.40;;;8.10;;
7231;SDS011;3657;49.630;11.018;2022-11-15T04:44:30;8.70;;;8.40;;
7231;SDS011;3657;49.630;11.018;2022-11-15T04:46:56;8.50;;;8.20;;
7231;SDS011;3657;49.630;11.018;2022-11-15T04:49:23;8.27;;;7.97;;
7231;SDS011;3657;49.630;11.018;2022-11-15T04:51:51;8.43;;;8.13;;
7231;SDS011;3657;49.630;11.018;2022-11-15T04:54:18;9.47;;;9.07;;
7231;SDS011;3657;49.630;11.018;2022-11-15T04:56:45;9.27;;;8.87;;
7231;SDS011;3657;49.630;11.018;2022-11-15T04:59:11;8.40;;;8.10;;
7231;SDS011;3657;49.630;11.018;2022-11-15T05:01:38;8.77;;;8.37;;
7231;SDS011;3657;49.630;11.018;2022-11-15T05:04:05;8.73;;;8.43;;
7231;SDS011;3657;49.630;11.018;2022-11-15T05:06:47;8.80;;;8.50;;
7231;SDS011;3657;49.630;11.018;2022-11-15T05:09:16;9.00;;;8.43;;
7231;SDS011;3657;49.630;11.018;2022-11-15T05:11:43;9.73;;;9.33;;
7231;SDS011;3657;49.630;11.018;2022-11-15T05:14:10;8.87;;;8.53;;
7231;SDS011;3657;49.630;11.018;2022-11-15T05:16:37;9.93;;;9.53;;
7231;SDS011;3657;49.630;11.018;2022-11-15T05:19:04;8.60;;;8.30;;
7231;SDS011;3657;49.630;11.018;2022-11-15T05:21:32;8.63;;;8.23;;
7231;SDS011;3657;49.630;11.018;2022-11-15T05:24:00;9.47;;;8.97;;
7231;SDS011;3657;49.630;11.018;2022-11-15T05:26:28;8.40;;;8.00;;
7231;SDS011;3657;49.630;11.018;2022-11-15T05:28:55;9.10;;;8.70;;
7231;SDS011;3657;49.630;11.018;2022-11-15T05:31:23;8.17;;;7.87;;
7231;SDS011;3657;49.630;11.018;2022-11-15T05:33:51;8.17;;;7.87;;
7231;SDS011;3657;49.630;11.018;2022-11-15T05:36:20;8.63;;;8.23;;
7231;SDS011;3657;49.630;11.018;2022-11-15T05:38:51;8.87;;;8.57;;
7231;SDS011;3657;49.630;11.018;2022-11-15T05:41:18;8.00;;;7.70;;
7231;SDS011;3657;49.630;11.018;2022-11-15T05:43:52;8.60;;;8.30;;
7231;SDS011;3657;49.630;11.018;2022-11-15T05:46:20;9.63;;;9.33;;
7231;SDS011;3657;49.630;11.018;2022-11-15T05:48:48;8.57;;;8.27;;
7231;SDS011;3657;49.630;11.018;2022-11-15T05:51:17;8.30;;;8.00;;
7231;SDS011;3657;49.630;11.018;2022-11-15T05:53:46;9.07;;;8.67;;
7231;SDS011;3657;49.630;11.018;2022-11-15T05:56:13;8.63;;;8.33;;
7231;SDS011;3657;49.630;11.018;2022-11-15T05:58:40;9.27;;;8.87;;
7231;SDS011;3657;49.630;11.018;2022-11-15T06:01:09;8.07;;;7.77;;
7231;SDS011;3657;49.630;11.018;2022-11-15T06:03:36;8.53;;;8.23;;
7231;SDS011;3657;49.630;11.018;2022-11-15T06:06:02;9.20;;;8.80;;
7231;SDS011;3657;49.630;11.018;2022-11-15T06:08:29;8.80;;;8.37;;
7231;SDS011;3657;49.630;11.018;2022-11-15T06:10:56;8.80;;;8.50;;
7231;SDS011;3657;49.630;11.018;2022-11-15T06:13:28;9.80;;;9.40;;
7231;SDS011;3657;49.630;11.018;2022-11-15T06:15:55;8.33;;;8.03;;
7231;SDS011;3657;49.630;11.018;2022-11-15T06:18:23;8.93;;;8.53;;
7231;SDS011;3657;49.630;11.018;2022-11-15T06:20:50;9.00;;;8.60;;
7231;SDS011;3657;49.630;11.018;2022-11-15T06:23:17;9.03;;;8.67;;
7231;SDS011;3657;49.630;11.018;2022-11-15T06:25:43;8.63;;;8.23;;
7231;SDS011;3657;49.630;11.018;2022-11-15T06:28:10;10.10;;;9.60;;
7231;SDS011;3657;49.630;11.018;2022-11-15T06:30:37;9.17;;;8.87;;
7231;SDS011;3657;49.630;11.018;2022-11-15T06:33:04;13.07;;;11.87;;
7231;SDS011;3657;49.630;11.018;2022-11-15T06:35:34;9.03;;;8.73;;
7231;SDS011;3657;49.630;11.018;2022-11-15T06:38:02;8.17;;;7.87;;
7231;SDS011;3657;49.630;11.018;2022-11-15T06:40:32;10.27;;;9.77;;
7231;SDS011;3657;49.630;11.018;2022-11-15T06:43:01;9.80;;;9.30;;
7231;SDS011;3657;49.630;11.018;2022-11-15T06:45:27;9.00;;;8.70;;
7231;SDS011;3657;49.630;11.018;2022-11-15T06:47:54;9.03;;;8.63;;
7231;SDS011;3657;49.630;11.018;2022-11-15T06:50:21;9.20;;;8.80;;
7231;SDS011;3657;49.630;11.018;2022-11-15T06:52:49;9.63;;;9.23;;
7231;SDS011;3657;49.630;11.018;2022-11-15T06:55:16;10.20;;;9.80;;
7231;SDS011;3657;49.630;11.018;2022-11-15T06:57:46;10.10;;;9.63;;
7231;SDS011;3657;49.630;11.018;2022-11-15T07:00:14;9.20;;;8.80;;
7231;SDS011;3657;49.630;11.018;2022-11-15T07:02:41;12.07;;;11.50;;
7231;SDS011;3657;49.630;11.018;2022-11-15T07:05:08;9.50;;;9.10;;
7231;SDS011;3657;49.630;11.018;2022-11-15T07:07:35;10.70;;;10.10;;
7231;SDS011;3657;49.630;11.018;2022-11-15T07:10:03;9.53;;;9.13;;
7231;SDS011;3657;49.630;11.018;2022-11-15T07:12:30;11.07;;;10.47;;
7231;SDS011;3657;49.630;11.018;2022-11-15T07:14:57;8.87;;;8.47;;
7231;SDS011;3657;49.630;11.018;2022-11-15T07:17:24;9.57;;;9.17;;
7231;SDS011;3657;49.630;11.018;2022-11-15T07:19:50;8.77;;;8.47;;
7231;SDS011;3657;49.630;11.018;2022-11-15T07:22:17;9.63;;;9.23;;
7231;SDS011;3657;49.630;11.018;2022-11-15T07:24:44;10.13;;;9.60;;
7231;SDS011;3657;49.630;11.018;2022-11-15T07:27:12;11.80;;;11.27;;
7231;SDS011;3657;49.630;11.018;2022-11-15T07:29:38;11.43;;;10.93;;
7231;SDS011;3657;49.630;11.018;2022-11-15T07:32:05;10.47;;;9.87;;
7231;SDS011;3657;49.630;11.018;2022-11-15T07:34:32;10.20;;;9.60;;
7231;SDS011;3657;49.630;11.018;2022-11-15T07:36:58;9.20;;;8.67;;
7231;SDS011;3657;49.630;11.018;2022-11-15T07:39:25;9.17;;;8.77;;
7231;SDS011;3657;49.630;11.018;2022-11-15T07:41:52;10.87;;;10.17;;
7231;SDS011;3657;49.630;11.018;2022-11-15T07:44:40;10.53;;;10.03;;
7231;SDS011;3657;49.630;11.018;2022-11-15T07:47:07;13.33;;;12.30;;
7231;SDS011;3657;49.630;11.018;2022-11-15T07:49:34;11.50;;;10.90;;
7231;SDS011;3657;49.630;11.018;2022-11-15T07:52:00;11.80;;;10.97;;
7231;SDS011;3657;49.630;11.018;2022-11-15T07:54:27;12.93;;;12.13;;
7231;SDS011;3657;49.630;11.018;2022-11-15T07:56:54;9.57;;;9.17;;
7231;SDS011;3657;49.630;11.018;2022-11-15T07:59:20;9.87;;;9.47;;
7231;SDS011;3657;49.630;11.018;2022-11-15T08:01:49;10.20;;;9.70;;
7231;SDS011;3657;49.630;11.018;2022-11-15T08:04:15;12.90;;;12.13;;
7231;SDS011;3657;49.630;11.018;2022-11-15T08:06:42;12.07;;;11.43;;
7231;SDS011;3657;49.630;11.018;2022-11-15T08:09:09;9.27;;;8.93;;
7231;SDS011;3657;49.630;11.018;2022-11-15T08:11:35;12.70;;;11.90;;
7231;SDS011;3657;49.630;11.018;2022-11-15T08:14:02;11.30;;;10.80;;
7231;SDS011;3657;49.630;11.018;2022-11-15T08:16:29;13.57;;;12.77;;
7231;SDS011;3657;49.630;11.018;2022-11-15T08:18:57;14.07;;;13.20;;
7231;SDS011;3657;49.630;11.018;2022-11-15T08:21:25;13.60;;;12.70;;
7231;SDS011;3657;49.630;11.018;2022-11-15T08:23:51;12.53;;;11.73;;
7231;SDS011;3657;49.630;11.018;2022-11-15T08:26:18;14.37;;;13.47;;
7231;SDS011;3657;49.630;11.018;2022-11-15T08:28:45;14.57;;;13.13;;
7231;SDS011;3657;49.630;11.018;2022-11-15T08:31:13;10.77;;;10.20;;
7231;SDS011;3657;49.630;11.018;2022-11-15T08:33:41;12.63;;;11.67;;
7231;SDS011;3657;49.630;11.018;2022-11-15T08:36:11;11.53;;;10.93;;
7231;SDS011;3657;49.630;11.018;2022-11-15T08:38:39;9.73;;;9.33;;
7231;SDS011;3657;49.630;11.018;2022-11-15T08:41:06;14.43;;;13.47;;
7231;SDS011;3657;49.630;11.018;2022-11-15T08:43:36;11.60;;;11.10;;
7231;SDS011;3657;49.630;11.018;2022-11-15T08:46:02;11.07;;;10.27;;
7231;SDS011;3657;49.630;11.018;2022-11-15T08:48:29;13.33;;;12.60;;
7231;SDS011;3657;49.630;11.018;2022-11-15T08:50:56;14.53;;;13.53;;
7231;SDS011;3657;49.630;11.018;2022-11-15T08:53:24;12.57;;;12.07;;
7231;SDS011;3657;49.630;11.018;2022-11-15T08:55:51;14.67;;;13.70;;
7231;SDS011;3657;49.630;11.018;2022-11-15T08:58:18;15.77;;;14.87;;
7231;SDS011;3657;49.630;11.018;2022-11-15T09:00:45;14.00;;;13.30;;
7231;SDS011;3657;49.630;11.018;2022-11-15T09:03:11;14.30;;;13.43;;
7231;SDS011;3657;49.630;11.018;2022-11-15T09:05:38;15.30;;;14.40;;
7231;SDS011;3657;49.630;11.018;2022-11-15T09:08:05;12.93;;;12.33;;
7231;SDS011;3657;49.630;11.018;2022-11-15T09:10:33;13.03;;;12.13;;
7231;SDS011;3657;49.630;11.018;2022-11-15T09:12:59;12.73;;;12.03;;
7231;SDS011;3657;49.630;11.018;2022-11-15T09:15:26;12.97;;;12.30;;
7231;SDS011;3657;49.630;11.018;2022-11-15T09:17:53;12.67;;;12.10;;
7231;SDS011;3657;49.630;11.018;2022-11-15T09:20:19;14.57;;;13.67;;
7231;SDS011;3657;49.630;11.018;2022-11-15T09:22:46;15.07;;;14.27;;
7231;SDS011;3657;49.630;11.018;2022-11-15T09:25:13;11.30;;;10.70;;
7231;SDS011;3657;49.630;11.018;2022-11-15T09:27:41;14.60;;;13.70;;
7231;SDS011;3657;49.630;11.018;2022-11-15T09:30:08;12.73;;;11.90;;
7231;SDS011;3657;49.630;11.018;2022-11-15T09:32:35;12.47;;;11.80;;
7231;SDS011;3657;49.630;11.018;2022-11-15T09:35:02;12.00;;;11.40;;
7231;SDS011;3657;49.630;11.018;2022-11-15T09:37:31;12.87;;;12.17;;
7231;SDS011;3657;49.630;11.018;2022-11-15T09:39:57;15.20;;;14.00;;
7231;SDS011;3657;49.630;11.018;2022-11-15T09:42:34;14.53;;;13.73;;
7231;SDS011;3657;49.630;11.018;2022-11-15T09:45:18;12.60;;;12.03;;
7231;SDS011;3657;49.630;11.018;2022-11-15T09:47:55;11.87;;;11.37;;
7231;SDS011;3657;49.630;11.018;2022-11-15T09:50:54;11.57;;;10.97;;
7231;SDS011;3657;49.630;11.018;2022-11-15T09:53:25;11.53;;;10.97;;
7231;SDS011;3657;49.630;11.018;2022-11-15T09:55:56;11.23;;;10.63;;
7231;SDS011;3657;49.630;11.018;2022-11-15T09:58:32;9.87;;;9.47;;
7231;SDS011;3657;49.630;11.018;2022-11-15T10:01:04;9.77;;;9.30;;
7231;SDS011;3657;49.630;11.018;2022-11-15T10:03:38;9.63;;;9.13;;
7231;SDS011;3657;49.630;11.018;2022-11-15T10:06:10;13.10;;;12.40;;
7231;SDS011;3657;49.630;11.018;2022-11-15T10:08:47;9.10;;;8.80;;
7231;SDS011;3657;49.630;11.018;2022-11-15T10:11:21;10.60;;;10.10;;
7231;SDS011;3657;49.630;11.018;2022-11-15T10:13:52;9.33;;;8.83;;
7231;SDS011;3657;49.630;11.018;2022-11-15T10:16:25;8.93;;;8.53;;
7231;SDS011;3657;49.630;11.018;2022-11-15T10:19:04;8.73;;;8.43;;
7231;SDS011;3657;49.630;11.018;2022-11-15T10:21:38;7.97;;;7.67;;
7231;SDS011;3657;49.630;11.018;2022-11-15T10:24:15;8.90;;;8.20;;
7231;SDS011;3657;49.630;11.018;2022-11-15T10:26:45;8.10;;;7.77;;
7231;SDS011;3657;49.630;11.018;2022-11-15T10:29:18;7.17;;;6.97;;
7231;SDS011;3657;49.630;11.018;2022-11-15T10:31:46;7.80;;;7.40;;
7231;SDS011;3657;49.630;11.018;2022-11-15T10:34:13;8.50;;;8.00;;
7231;SDS011;3657;49.630;11.018;2022-11-15T10:36:43;7.60;;;7.30;;
7231;SDS011;3657;49.630;11.018;2022-11-15T10:39:11;7.33;;;7.03;;
7231;SDS011;3657;49.630;11.018;2022-11-15T10:41:39;8.13;;;6.37;;
7231;SDS011;3657;49.630;11.018;2022-11-15T10:44:09;6.30;;;6.10;;
7231;SDS011;3657;49.630;11.018;2022-11-15T10:46:46;8.67;;;8.27;;
7231;SDS011;3657;49.630;11.018;2022-11-15T10:49:16;6.90;;;6.50;;
7231;SDS011;3657;49.630;11.018;2022-11-15T10:51:45;6.83;;;6.53;;
7231;SDS011;3657;49.630;11.018;2022-11-15T10:54:13;6.87;;;6.47;;
7231;SDS011;3657;49.630;11.018;2022-11-15T10:56:48;6.03;;;5.73;;
7231;SDS011;3657;49.630;11.018;2022-11-15T10:59:18;7.30;;;7.10;;
7231;SDS011;3657;49.630;11.018;2022-11-15T11:01:50;6.63;;;6.43;;
7231;SDS011;3657;49.630;11.018;2022-11-15T11:04:17;5.90;;;5.70;;
7231;SDS011;3657;49.630;11.018;2022-11-15T11:06:48;5.80;;;5.60;;
7231;SDS011;3657;49.630;11.018;2022-11-15T11:09:22;5.83;;;5.43;;
7231;SDS011;3657;49.630;11.018;2022-11-15T11:12:00;7.03;;;6.73;;
7231;SDS011;3657;49.630;11.018;2022-11-15T11:14:30;6.37;;;6.07;;
7231;SDS011;3657;49.630;11.018;2022-11-15T11:17:01;6.30;;;5.97;;
7231;SDS011;3657;49.630;11.018;2022-11-15T11:19:37;7.30;;;7.10;;
7231;SDS011;3657;49.630;11.018;2022-11-15T11:22:16;7.67;;;7.00;;
7231;SDS011;3657;49.630;11.018;2022-11-15T11:24:51;8.10;;;7.80;;
7231;SDS011;3657;49.630;11.018;2022-11-15T11:27:30;9.13;;;8.40;;
7231;SDS011;3657;49.630;11.018;2022-11-15T11:30:12;6.70;;;6.50;;
7231;SDS011;3657;49.630;11.018;2022-11-15T11:32:49;6.50;;;6.30;;
7231;SDS011;3657;49.630;11.018;2022-11-15T11:35:27;6.57;;;6.37;;
7231;SDS011;3657;49.630;11.018;2022-11-15T11:38:00;7.20;;;6.90;;
7231;SDS011;3657;49.630;11.018;2022-11-15T11:40:43;6.43;;;6.23;;
7231;SDS011;3657;49.630;11.018;2022-11-15T11:43:18;6.20;;;6.00;;
7231;SDS011;3657;49.630;11.018;2022-11-15T11:45:58;5.90;;;5.70;;
7231;SDS011;3657;49.630;11.018;2022-11-15T11:48:51;6.37;;;6.17;;
7231;SDS011;3657;49.630;11.018;2022-11-15T11:51:24;6.50;;;6.30;;
7231;SDS011;3657;49.630;11.018;2022-11-15T11:53:54;6.67;;;6.47;;
7231;SDS011;3657;49.630;11.018;2022-11-15T11:56:26;6.50;;;6.30;;
7231;SDS011;3657;49.630;11.018;2022-11-15T11:58:55;6.73;;;6.43;;
7231;SDS011;3657;49.630;11.018;2022-11-15T12:01:29;6.33;;;6.13;;
7231;SDS011;3657;49.630;11.018;2022-11-15T12:04:01;6.50;;;6.30;;
7231;SDS011;3657;49.630;11.018;2022-11-15T12:06:32;7.53;;;7.30;;
7231;SDS011;3657;49.630;11.018;2022-11-15T12:09:06;6.73;;;6.53;;
7231;SDS011;3657;49.630;11.018;2022-11-15T12:11:49;6.27;;;6.07;;
7231;SDS011;3657;49.630;11.018;2022-11-15T12:14:23;6.43;;;6.23;;
7231;SDS011;3657;49.630;11.018;2022-11-15T12:16:57;6.17;;;5.93;;
7231;SDS011;3657;49.630;11.018;2022-11-15T12:19:24;6.20;;;6.00;;
7231;SDS011;3657;49.630;11.018;2022-11-15T12:21:53;6.50;;;6.30;;
7231;SDS011;3657;49.630;11.018;2022-11-15T12:24:25;6.40;;;6.20;;
7231;SDS011;3657;49.630;11.018;2022-11-15T12:26:56;6.77;;;6.47;;
7231;SDS011;3657;49.630;11.018;2022-11-15T12:29:28;6.37;;;6.13;;
7231;SDS011;3657;49.630;11.018;2022-11-15T12:32:00;6.67;;;6.47;;
7231;SDS011;3657;49.630;11.018;2022-11-15T12:34:29;6.53;;;6.27;;
7231;SDS011;3657;49.630;11.018;2022-11-15T12:40:17;6.00;;;5.80;;
7231;SDS011;3657;49.630;11.018;2022-11-15T12:43:05;5.90;;;5.60;;
7231;SDS011;3657;49.630;11.018;2022-11-15T12:45:52;6.63;;;6.40;;
7231;SDS011;3657;49.630;11.018;2022-11-15T12:57:41;6.27;;;6.07;;
7231;SDS011;3657;49.630;11.018;2022-11-15T13:03:19;5.40;;;5.17;;
7231;SDS011;3657;49.630;11.018;2022-11-15T13:08:50;5.73;;;5.43;;
7231;SDS011;3657;49.630;11.018;2022-11-15T13:20:16;5.23;;;5.03;;
7231;SDS011;3657;49.630;11.018;2022-11-15T13:22:48;6.17;;;5.97;;
7231;SDS011;3657;49.630;11.018;2022-11-15T13:25:18;6.10;;;5.80;;
7231;SDS011;3657;49.630;11.018;2022-11-15T13:27:50;6.20;;;6.00;;
7231;SDS011;3657;49.630;11.018;2022-11-15T13:30:20;5.83;;;5.53;;
7231;SDS011;3657;49.630;11.018;2022-11-15T13:32:48;5.73;;;5.53;;
7231;SDS011;3657;49.630;11.018;2022-11-15T13:35:18;6.00;;;5.80;;
7231;SDS011;3657;49.630;11.018;2022-11-15T13:37:47;6.27;;;6.07;;
7231;SDS011;3657;49.630;11.018;2022-11-15T13:40:17;7.07;;;6.60;;
7231;SDS011;3657;49.630;11.018;2022-11-15T13:42:47;6.10;;;5.90;;
7231;SDS011;3657;49.630;11.018;2022-11-15T13:45:16;6.03;;;5.83;;
7231;SDS011;3657;49.630;11.018;2022-11-15T13:47:44;6.50;;;6.30;;
7231;SDS011;3657;49.630;11.018;2022-11-15T13:50:16;5.53;;;5.33;;
7231;SDS011;3657;49.630;11.018;2022-11-15T13:52:44;6.23;;;6.03;;
7231;SDS011;3657;49.630;11.018;2022-11-15T13:55:14;5.53;;;5.33;;
7231;SDS011;3657;49.630;11.018;2022-11-15T13:57:43;6.03;;;5.83;;
7231;SDS011;3657;49.630;11.018;2022-11-15T14:03:04;6.27;;;6.07;;
7231;SDS011;3657;49.630;11.018;2022-11-15T14:05:34;6.90;;;6.53;;
7231;SDS011;3657;49.630;11.018;2022-11-15T14:08:01;6.30;;;6.10;;
7231;SDS011;3657;49.630;11.018;2022-11-15T14:10:30;6.70;;;6.50;;
7231;SDS011;3657;49.630;11.018;2022-11-15T14:13:00;6.40;;;6.20;;
7231;SDS011;3657;49.630;11.018;2022-11-15T14:15:29;5.87;;;5.67;;
7231;SDS011;3657;49.630;11.018;2022-11-15T14:17:58;6.50;;;6.30;;
7231;SDS011;3657;49.630;11.018;2022-11-15T14:20:26;5.53;;;5.33;;
7231;SDS011;3657;49.630;11.018;2022-11-15T14:22:57;6.10;;;5.90;;
7231;SDS011;3657;49.630;11.018;2022-11-15T14:25:25;6.10;;;5.90;;
7231;SDS011;3657;49.630;11.018;2022-11-15T14:28:10;6.27;;;6.07;;
7231;SDS011;3657;49.630;11.018;2022-11-15T14:30:57;6.33;;;6.13;;
7231;SDS011;3657;49.630;11.018;2022-11-15T14:33:25;6.60;;;6.40;;
7231;SDS011;3657;49.630;11.018;2022-11-15T14:35:55;5.77;;;5.67;;
7231;SDS011;3657;49.630;11.018;2022-11-15T14:38:23;6.20;;;6.00;;
7231;SDS011;3657;49.630;11.018;2022-11-15T14:40:50;6.97;;;6.77;;
7231;SDS011;3657;49.630;11.018;2022-11-15T14:43:18;7.90;;;7.60;;
7231;SDS011;3657;49.630;11.018;2022-11-15T14:45:45;8.77;;;8.17;;
7231;SDS011;3657;49.630;11.018;2022-11-15T14:48:13;7.63;;;7.27;;
7231;SDS011;3657;49.630;11.018;2022-11-15T14:50:40;6.77;;;6.37;;
7231;SDS011;3657;49.630;11.018;2022-11-15T14:53:10;7.20;;;7.00;;
7231;SDS011;3657;49.630;11.018;2022-11-15T14:55:39;7.93;;;7.63;;
7231;SDS011;3657;49.630;11.018;2022-11-15T14:58:06;10.83;;;10.40;;
7231;SDS011;3657;49.630;11.018;2022-11-15T15:00:34;7.47;;;7.17;;
7231;SDS011;3657;49.630;11.018;2022-11-15T15:03:01;7.50;;;7.27;;
7231;SDS011;3657;49.630;11.018;2022-11-15T15:05:31;7.33;;;6.93;;
7231;SDS011;3657;49.630;11.018;2022-11-15T15:07:59;7.47;;;7.10;;
7231;SDS011;3657;49.630;11.018;2022-11-15T15:10:27;7.97;;;7.67;;
7231;SDS011;3657;49.630;11.018;2022-11-15T15:12:57;7.47;;;7.13;;
7231;SDS011;3657;49.630;11.018;2022-11-15T15:15:25;7.20;;;7.00;;
7231;SDS011;3657;49.630;11.018;2022-11-15T15:17:55;7.37;;;7.13;;
7231;SDS011;3657;49.630;11.018;2022-11-15T15:20:22;6.47;;;6.27;;
7231;SDS011;3657;49.630;11.018;2022-11-15T15:22:50;8.17;;;7.67;;
7231;SDS011;3657;49.630;11.018;2022-11-15T15:25:19;8.60;;;8.30;;
7231;SDS011;3657;49.630;11.018;2022-11-15T15:27:52;8.37;;;7.97;;
7231;SDS011;3657;49.630;11.018;2022-11-15T15:30:20;9.90;;;9.30;;
7231;SDS011;3657;49.630;11.018;2022-11-15T15:32:47;8.67;;;8.00;;
7231;SDS011;3657;49.630;11.018;2022-11-15T15:35:14;9.23;;;8.73;;
7231;SDS011;3657;49.630;11.018;2022-11-15T15:37:43;8.40;;;8.03;;
7231;SDS011;3657;49.630;11.018;2022-11-15T15:40:12;8.27;;;7.97;;
7231;SDS011;3657;49.630;11.018;2022-11-15T15:42:40;8.23;;;7.83;;